sensor_id;sensor_type;location;lat;lon;timestamp;temperature;humidity
28823;DHT22;15961;54.678;9.110;2023-02-15T00:01:41;-0.90;99.90
28823;DHT22;15961;54.678;9.110;2023-02-15T00:04:07;-1.00;99.90
28823;DHT22;15961;54.678;9.110;2023-02-15T00:06:34;-1.00;99.90
28823;DHT22;15961;54.678;9.110;2023-02-15T00:09:00;-0.90;99.90
28823;DHT22;15961;54.678;9.110;2023-02-15T00:11:26;-0.90;99.90
28823;DHT22;15961;54.678;9.110;2023-02-15T00:14:20;-0.90;99.90
28823;DHT22;15961;54.678;9.110;2023-02-15T00:16:46;-0.90;99.90
28823;DHT22;15961;54.678;9.110;2023-02-15T00:19:15;-0.90;99.90
28823;DHT22;15961;54.678;9.110;2023-02-15T00:21:41;-1.00;99.90
28823;DHT22;15961;54.678;9.110;2023-02-15T00:24:08;-1.10;99.90
28823;DHT22;15961;54.678;9.110;2023-02-15T00:26:34;-1.10;99.90
28823;DHT22;15961;54.678;9.110;2023-02-15T00:29:00;-1.20;99.90
28823;DHT22;15961;54.678;9.110;2023-02-15T00:31:26;-1.30;99.90
28823;DHT22;15961;54.678;9.110;2023-02-15T00:33:52;-1.30;99.90
28823;DHT22;15961;54.678;9.110;2023-02-15T00:36:18;-1.40;99.90
28823;DHT22;15961;54.678;9.110;2023-02-15T00:38:43;-1.40;99.90
28823;DHT22;15961;54.678;9.110;2023-02-15T00:41:09;-1.40;99.90
28823;DHT22;15961;54.678;9.110;2023-02-15T00:43:36;-1.40;99.90
28823;DHT22;15961;54.678;9.110;2023-02-15T00:46:03;-1.40;99.90
28823;DHT22;15961;54.678;9.110;2023-02-15T00:48:29;-1.40;99.90
28823;DHT22;15961;54.678;9.110;2023-02-15T00:50:57;-1.30;99.90
28823;DHT22;15961;54.678;9.110;2023-02-15T00:53:24;-1.20;99.90
28823;DHT22;15961;54.678;9.110;2023-02-15T00:55:50;-1.20;99.90
28823;DHT22;15961;54.678;9.110;2023-02-15T00:58:16;-1.20;99.90
28823;DHT22;15961;54.678;9.110;2023-02-15T01:00:46;-1.30;99.90
28823;DHT22;15961;54.678;9.110;2023-02-15T01:03:13;-1.30;99.90
28823;DHT22;15961;54.678;9.110;2023-02-15T01:05:39;-1.30;99.90
28823;DHT22;15961;54.678;9.110;2023-02-15T01:08:05;-1.30;99.90
28823;DHT22;15961;54.678;9.110;2023-02-15T01:10:33;-1.40;99.90
28823;DHT22;15961;54.678;9.110;2023-02-15T01:12:58;-1.40;99.90
28823;DHT22;15961;54.678;9.110;2023-02-15T01:15:24;-1.40;99.90
28823;DHT22;15961;54.678;9.110;2023-02-15T01:17:50;-1.50;99.90
28823;DHT22;15961;54.678;9.110;2023-02-15T01:20:21;-1.50;99.90
28823;DHT22;15961;54.678;9.110;2023-02-15T01:22:47;-1.50;99.90
28823;DHT22;15961;54.678;9.110;2023-02-15T01:25:18;-1.50;99.90
28823;DHT22;15961;54.678;9.110;2023-02-15T01:27:44;-1.50;99.90
28823;DHT22;15961;54.678;9.110;2023-02-15T01:30:11;-1.50;99.90
28823;DHT22;15961;54.678;9.110;2023-02-15T01:32:36;-1.50;99.90
28823;DHT22;15961;54.678;9.110;2023-02-15T01:35:02;-1.40;99.90
28823;DHT22;15961;54.678;9.110;2023-02-15T01:37:30;-1.40;99.90
28823;DHT22;15961;54.678;9.110;2023-02-15T01:39:55;-1.30;99.90
28823;DHT22;15961;54.678;9.110;2023-02-15T01:42:22;-1.30;99.90
28823;DHT22;15961;54.678;9.110;2023-02-15T01:44:55;-1.30;99.90
28823;DHT22;15961;54.678;9.110;2023-02-15T01:47:45;-1.30;99.90
28823;DHT22;15961;54.678;9.110;2023-02-15T01:53:09;-1.30;99.90
28823;DHT22;15961;54.678;9.110;2023-02-15T01:55:52;-1.30;99.90
28823;DHT22;15961;54.678;9.110;2023-02-15T01:58:19;-1.30;99.90
28823;DHT22;15961;54.678;9.110;2023-02-15T02:00:46;-1.30;99.90
28823;DHT22;15961;54.678;9.110;2023-02-15T02:03:12;-1.30;99.90
28823;DHT22;15961;54.678;9.110;2023-02-15T02:05:39;-1.40;99.90
28823;DHT22;15961;54.678;9.110;2023-02-15T02:08:06;-1.40;99.90
28823;DHT22;15961;54.678;9.110;2023-02-15T02:10:32;-1.40;99.90
28823;DHT22;15961;54.678;9.110;2023-02-15T02:13:00;-1.40;99.90
28823;DHT22;15961;54.678;9.110;2023-02-15T02:15:49;-1.40;99.90
28823;DHT22;15961;54.678;9.110;2023-02-15T02:18:34;-1.40;99.90
28823;DHT22;15961;54.678;9.110;2023-02-15T02:21:15;-1.40;99.90
28823;DHT22;15961;54.678;9.110;2023-02-15T02:26:54;-1.40;99.90
28823;DHT22;15961;54.678;9.110;2023-02-15T02:32:28;-1.30;99.90
28823;DHT22;15961;54.678;9.110;2023-02-15T02:35:08;-1.20;99.90
28823;DHT22;15961;54.678;9.110;2023-02-15T02:40:13;-1.00;99.90
28823;DHT22;15961;54.678;9.110;2023-02-15T02:42:44;-0.90;99.90
28823;DHT22;15961;54.678;9.110;2023-02-15T02:45:23;-0.90;99.90
28823;DHT22;15961;54.678;9.110;2023-02-15T02:47:56;-0.80;99.90
28823;DHT22;15961;54.678;9.110;2023-02-15T02:50:28;-0.80;99.90
28823;DHT22;15961;54.678;9.110;2023-02-15T02:52:55;-0.70;99.90
28823;DHT22;15961;54.678;9.110;2023-02-15T02:55:35;-0.60;99.90
28823;DHT22;15961;54.678;9.110;2023-02-15T02:58:14;-0.60;99.90
28823;DHT22;15961;54.678;9.110;2023-02-15T03:01:44;-0.50;99.90
28823;DHT22;15961;54.678;9.110;2023-02-15T03:03:55;-0.40;99.90
28823;DHT22;15961;54.678;9.110;2023-02-15T03:06:33;-0.40;99.90
28823;DHT22;15961;54.678;9.110;2023-02-15T03:09:10;-0.30;99.90
28823;DHT22;15961;54.678;9.110;2023-02-15T03:11:43;-0.30;99.90
28823;DHT22;15961;54.678;9.110;2023-02-15T03:14:09;-0.30;99.90
28823;DHT22;15961;54.678;9.110;2023-02-15T03:16:36;-0.30;99.90
28823;DHT22;15961;54.678;9.110;2023-02-15T03:19:10;-0.20;99.90
28823;DHT22;15961;54.678;9.110;2023-02-15T03:21:50;-0.20;99.90
28823;DHT22;15961;54.678;9.110;2023-02-15T03:24:26;-0.20;99.90
28823;DHT22;15961;54.678;9.110;2023-02-15T03:26:54;-0.20;99.90
28823;DHT22;15961;54.678;9.110;2023-02-15T03:29:24;-0.20;99.90
28823;DHT22;15961;54.678;9.110;2023-02-15T03:31:54;-0.20;99.90
28823;DHT22;15961;54.678;9.110;2023-02-15T03:34:22;-0.20;99.90
28823;DHT22;15961;54.678;9.110;2023-02-15T03:37:04;-0.20;99.90
28823;DHT22;15961;54.678;9.110;2023-02-15T03:42:31;-0.20;99.90
28823;DHT22;15961;54.678;9.110;2023-02-15T03:45:09;-0.20;99.90
28823;DHT22;15961;54.678;9.110;2023-02-15T03:47:38;-0.20;99.90
28823;DHT22;15961;54.678;9.110;2023-02-15T03:50:18;-0.10;99.90
28823;DHT22;15961;54.678;9.110;2023-02-15T03:53:06;-0.10;99.90
28823;DHT22;15961;54.678;9.110;2023-02-15T03:55:34;-0.10;99.90
28823;DHT22;15961;54.678;9.110;2023-02-15T03:58:00;-0.10;99.90
28823;DHT22;15961;54.678;9.110;2023-02-15T04:00:50;-0.10;99.90
28823;DHT22;15961;54.678;9.110;2023-02-15T04:03:40;-0.10;99.90
28823;DHT22;15961;54.678;9.110;2023-02-15T04:06:08;-0.20;99.90
28823;DHT22;15961;54.678;9.110;2023-02-15T04:08:33;-0.20;99.90
28823;DHT22;15961;54.678;9.110;2023-02-15T04:11:17;-0.10;99.90
28823;DHT22;15961;54.678;9.110;2023-02-15T04:13:43;-0.10;99.90
28823;DHT22;15961;54.678;9.110;2023-02-15T04:16:09;-0.10;99.90
28823;DHT22;15961;54.678;9.110;2023-02-15T04:18:42;-0.10;99.90
28823;DHT22;15961;54.678;9.110;2023-02-15T04:21:29;-0.10;99.90
28823;DHT22;15961;54.678;9.110;2023-02-15T04:24:14;-0.20;99.90
28823;DHT22;15961;54.678;9.110;2023-02-15T04:26:59;-0.10;99.90
28823;DHT22;15961;54.678;9.110;2023-02-15T04:29:25;-0.20;99.90
28823;DHT22;15961;54.678;9.110;2023-02-15T04:31:53;-0.20;99.90
28823;DHT22;15961;54.678;9.110;2023-02-15T04:34:19;-0.20;99.90
28823;DHT22;15961;54.678;9.110;2023-02-15T04:36:44;-0.20;99.90
28823;DHT22;15961;54.678;9.110;2023-02-15T04:39:13;-0.20;99.90
28823;DHT22;15961;54.678;9.110;2023-02-15T04:41:38;-0.10;99.90
28823;DHT22;15961;54.678;9.110;2023-02-15T04:44:04;-0.10;99.90
28823;DHT22;15961;54.678;9.110;2023-02-15T04:46:30;-0.10;99.90
28823;DHT22;15961;54.678;9.110;2023-02-15T04:48:55;-0.10;99.90
28823;DHT22;15961;54.678;9.110;2023-02-15T04:51:21;-0.10;99.90
28823;DHT22;15961;54.678;9.110;2023-02-15T04:53:47;0.00;99.90
28823;DHT22;15961;54.678;9.110;2023-02-15T04:56:12;-0.10;99.90
28823;DHT22;15961;54.678;9.110;2023-02-15T04:58:38;-0.10;99.90
28823;DHT22;15961;54.678;9.110;2023-02-15T05:01:07;0.00;99.90
28823;DHT22;15961;54.678;9.110;2023-02-15T05:03:33;0.00;99.90
28823;DHT22;15961;54.678;9.110;2023-02-15T05:05:58;0.00;99.90
28823;DHT22;15961;54.678;9.110;2023-02-15T05:08:24;0.00;99.90
28823;DHT22;15961;54.678;9.110;2023-02-15T05:10:49;0.10;99.90
28823;DHT22;15961;54.678;9.110;2023-02-15T05:13:15;0.10;99.90
28823;DHT22;15961;54.678;9.110;2023-02-15T05:15:41;0.00;99.90
28823;DHT22;15961;54.678;9.110;2023-02-15T05:18:06;0.00;99.90
28823;DHT22;15961;54.678;9.110;2023-02-15T05:20:33;0.10;99.90
28823;DHT22;15961;54.678;9.110;2023-02-15T05:22:58;0.10;99.90
28823;DHT22;15961;54.678;9.110;2023-02-15T05:25:24;0.10;99.90
28823;DHT22;15961;54.678;9.110;2023-02-15T05:28:10;0.00;99.90
28823;DHT22;15961;54.678;9.110;2023-02-15T05:33:33;0.00;99.90
28823;DHT22;15961;54.678;9.110;2023-02-15T05:36:00;0.00;99.90
28823;DHT22;15961;54.678;9.110;2023-02-15T05:38:25;0.00;99.90
28823;DHT22;15961;54.678;9.110;2023-02-15T05:40:52;0.00;99.90
28823;DHT22;15961;54.678;9.110;2023-02-15T05:43:18;-0.10;99.90
28823;DHT22;15961;54.678;9.110;2023-02-15T05:45:52;-0.10;99.90
28823;DHT22;15961;54.678;9.110;2023-02-15T05:48:19;-0.10;99.90
28823;DHT22;15961;54.678;9.110;2023-02-15T05:50:45;-0.10;99.90
28823;DHT22;15961;54.678;9.110;2023-02-15T05:53:10;0.00;99.90
28823;DHT22;15961;54.678;9.110;2023-02-15T05:55:40;-0.10;99.90
28823;DHT22;15961;54.678;9.110;2023-02-15T05:58:07;0.00;99.90
28823;DHT22;15961;54.678;9.110;2023-02-15T06:00:33;0.00;99.90
28823;DHT22;15961;54.678;9.110;2023-02-15T06:02:59;0.00;99.90
28823;DHT22;15961;54.678;9.110;2023-02-15T06:05:24;0.00;99.90
28823;DHT22;15961;54.678;9.110;2023-02-15T06:07:50;0.10;99.90
28823;DHT22;15961;54.678;9.110;2023-02-15T06:10:15;0.10;99.90
28823;DHT22;15961;54.678;9.110;2023-02-15T06:12:41;0.10;99.90
28823;DHT22;15961;54.678;9.110;2023-02-15T06:15:07;0.10;99.90
28823;DHT22;15961;54.678;9.110;2023-02-15T06:17:32;0.10;99.90
28823;DHT22;15961;54.678;9.110;2023-02-15T06:19:58;0.20;99.90
28823;DHT22;15961;54.678;9.110;2023-02-15T06:22:23;0.20;99.90
28823;DHT22;15961;54.678;9.110;2023-02-15T06:24:49;0.20;99.90
28823;DHT22;15961;54.678;9.110;2023-02-15T06:27:14;0.20;99.90
28823;DHT22;15961;54.678;9.110;2023-02-15T06:29:40;0.20;99.90
28823;DHT22;15961;54.678;9.110;2023-02-15T06:32:06;0.20;99.90
28823;DHT22;15961;54.678;9.110;2023-02-15T06:34:32;0.20;99.90
28823;DHT22;15961;54.678;9.110;2023-02-15T06:36:57;0.20;99.90
28823;DHT22;15961;54.678;9.110;2023-02-15T06:39:23;0.20;99.90
28823;DHT22;15961;54.678;9.110;2023-02-15T06:41:48;0.20;99.90
28823;DHT22;15961;54.678;9.110;2023-02-15T06:44:14;0.20;99.90
28823;DHT22;15961;54.678;9.110;2023-02-15T06:46:39;0.20;99.90
28823;DHT22;15961;54.678;9.110;2023-02-15T06:49:05;0.20;99.90
28823;DHT22;15961;54.678;9.110;2023-02-15T06:51:31;0.10;99.90
28823;DHT22;15961;54.678;9.110;2023-02-15T06:53:56;0.10;99.90
28823;DHT22;15961;54.678;9.110;2023-02-15T06:56:22;0.10;99.90
28823;DHT22;15961;54.678;9.110;2023-02-15T06:58:48;0.10;99.90
28823;DHT22;15961;54.678;9.110;2023-02-15T07:01:15;0.10;99.90
28823;DHT22;15961;54.678;9.110;2023-02-15T07:03:40;0.10;99.90
28823;DHT22;15961;54.678;9.110;2023-02-15T07:06:06;0.10;99.90
28823;DHT22;15961;54.678;9.110;2023-02-15T07:08:35;0.10;99.90
28823;DHT22;15961;54.678;9.110;2023-02-15T07:11:01;0.10;99.90
28823;DHT22;15961;54.678;9.110;2023-02-15T07:13:45;0.20;99.90
28823;DHT22;15961;54.678;9.110;2023-02-15T07:16:11;0.20;99.90
28823;DHT22;15961;54.678;9.110;2023-02-15T07:18:37;0.10;99.90
28823;DHT22;15961;54.678;9.110;2023-02-15T07:21:03;0.20;99.90
28823;DHT22;15961;54.678;9.110;2023-02-15T07:23:29;0.20;99.90
28823;DHT22;15961;54.678;9.110;2023-02-15T07:25:58;0.20;99.90
28823;DHT22;15961;54.678;9.110;2023-02-15T07:28:24;0.20;99.90
28823;DHT22;15961;54.678;9.110;2023-02-15T07:30:49;0.20;99.90
28823;DHT22;15961;54.678;9.110;2023-02-15T07:33:15;0.20;99.90
28823;DHT22;15961;54.678;9.110;2023-02-15T07:35:52;0.20;99.90
28823;DHT22;15961;54.678;9.110;2023-02-15T07:38:19;0.30;99.90
28823;DHT22;15961;54.678;9.110;2023-02-15T07:40:45;0.30;99.90
28823;DHT22;15961;54.678;9.110;2023-02-15T07:43:11;0.30;99.90
28823;DHT22;15961;54.678;9.110;2023-02-15T07:45:37;0.30;99.90
28823;DHT22;15961;54.678;9.110;2023-02-15T07:48:03;0.30;99.90
28823;DHT22;15961;54.678;9.110;2023-02-15T07:50:30;0.40;99.90
28823;DHT22;15961;54.678;9.110;2023-02-15T07:52:55;0.40;99.90
28823;DHT22;15961;54.678;9.110;2023-02-15T07:55:21;0.50;99.90
28823;DHT22;15961;54.678;9.110;2023-02-15T07:57:49;0.50;99.90
28823;DHT22;15961;54.678;9.110;2023-02-15T08:00:16;0.50;99.90
28823;DHT22;15961;54.678;9.110;2023-02-15T08:02:47;0.60;99.90
28823;DHT22;15961;54.678;9.110;2023-02-15T08:05:14;0.60;99.90
28823;DHT22;15961;54.678;9.110;2023-02-15T08:07:39;0.60;99.90
28823;DHT22;15961;54.678;9.110;2023-02-15T08:10:05;0.60;99.90
28823;DHT22;15961;54.678;9.110;2023-02-15T08:12:31;0.70;99.90
28823;DHT22;15961;54.678;9.110;2023-02-15T08:14:56;0.80;99.90
28823;DHT22;15961;54.678;9.110;2023-02-15T08:17:22;0.70;99.90
28823;DHT22;15961;54.678;9.110;2023-02-15T08:19:48;0.80;99.90
28823;DHT22;15961;54.678;9.110;2023-02-15T08:22:14;0.80;99.90
28823;DHT22;15961;54.678;9.110;2023-02-15T08:24:40;0.90;99.90
28823;DHT22;15961;54.678;9.110;2023-02-15T08:27:08;0.90;99.90
28823;DHT22;15961;54.678;9.110;2023-02-15T08:29:36;0.90;99.90
28823;DHT22;15961;54.678;9.110;2023-02-15T08:32:08;1.00;99.90
28823;DHT22;15961;54.678;9.110;2023-02-15T08:34:37;1.00;99.90
28823;DHT22;15961;54.678;9.110;2023-02-15T08:37:03;0.90;99.90
28823;DHT22;15961;54.678;9.110;2023-02-15T08:39:28;0.90;99.90
28823;DHT22;15961;54.678;9.110;2023-02-15T08:41:54;1.00;99.90
28823;DHT22;15961;54.678;9.110;2023-02-15T08:44:20;1.10;99.90
28823;DHT22;15961;54.678;9.110;2023-02-15T08:46:47;1.10;99.90
28823;DHT22;15961;54.678;9.110;2023-02-15T08:49:17;1.10;99.90
28823;DHT22;15961;54.678;9.110;2023-02-15T08:51:43;1.10;99.90
28823;DHT22;15961;54.678;9.110;2023-02-15T08:54:12;1.20;99.90
28823;DHT22;15961;54.678;9.110;2023-02-15T08:56:39;1.20;99.90
28823;DHT22;15961;54.678;9.110;2023-02-15T08:59:10;1.20;99.90
28823;DHT22;15961;54.678;9.110;2023-02-15T09:01:36;1.30;99.90
28823;DHT22;15961;54.678;9.110;2023-02-15T09:04:04;1.30;99.90
28823;DHT22;15961;54.678;9.110;2023-02-15T09:06:30;1.30;99.90
28823;DHT22;15961;54.678;9.110;2023-02-15T09:08:56;1.40;99.90
28823;DHT22;15961;54.678;9.110;2023-02-15T09:11:27;1.40;99.90
28823;DHT22;15961;54.678;9.110;2023-02-15T09:16:21;1.60;99.90
28823;DHT22;15961;54.678;9.110;2023-02-15T09:18:47;1.60;99.90
28823;DHT22;15961;54.678;9.110;2023-02-15T09:21:15;1.50;99.90
28823;DHT22;15961;54.678;9.110;2023-02-15T09:23:47;1.50;99.90
28823;DHT22;15961;54.678;9.110;2023-02-15T09:26:15;1.40;99.90
28823;DHT22;15961;54.678;9.110;2023-02-15T09:28:42;1.50;99.90
28823;DHT22;15961;54.678;9.110;2023-02-15T09:31:13;1.60;99.90
28823;DHT22;15961;54.678;9.110;2023-02-15T09:33:40;1.70;99.90
28823;DHT22;15961;54.678;9.110;2023-02-15T09:36:17;1.70;99.90
28823;DHT22;15961;54.678;9.110;2023-02-15T09:38:44;1.80;99.90
28823;DHT22;15961;54.678;9.110;2023-02-15T09:52:42;2.10;99.90
28823;DHT22;15961;54.678;9.110;2023-02-15T10:06:01;2.50;99.90
28823;DHT22;15961;54.678;9.110;2023-02-15T10:11:37;2.70;99.90
28823;DHT22;15961;54.678;9.110;2023-02-15T10:22:28;2.90;99.90
28823;DHT22;15961;54.678;9.110;2023-02-15T10:28:10;3.10;99.90
28823;DHT22;15961;54.678;9.110;2023-02-15T10:30:44;3.20;99.90
28823;DHT22;15961;54.678;9.110;2023-02-15T10:33:40;3.30;99.90
28823;DHT22;15961;54.678;9.110;2023-02-15T10:36:27;3.30;99.90
28823;DHT22;15961;54.678;9.110;2023-02-15T10:39:19;3.20;99.90
28823;DHT22;15961;54.678;9.110;2023-02-15T10:42:09;3.20;99.90
28823;DHT22;15961;54.678;9.110;2023-02-15T10:47:39;3.20;99.90
28823;DHT22;15961;54.678;9.110;2023-02-15T10:53:13;3.30;99.90
28823;DHT22;15961;54.678;9.110;2023-02-15T10:56:03;3.20;99.90
28823;DHT22;15961;54.678;9.110;2023-02-15T11:01:19;3.40;99.90
28823;DHT22;15961;54.678;9.110;2023-02-15T11:06:34;3.60;99.90
28823;DHT22;15961;54.678;9.110;2023-02-15T11:09:04;3.70;99.90
28823;DHT22;15961;54.678;9.110;2023-02-15T11:11:35;3.80;99.90
28823;DHT22;15961;54.678;9.110;2023-02-15T11:14:21;3.80;99.90
28823;DHT22;15961;54.678;9.110;2023-02-15T11:16:54;3.70;99.90
28823;DHT22;15961;54.678;9.110;2023-02-15T11:19:34;3.80;99.90
28823;DHT22;15961;54.678;9.110;2023-02-15T11:22:05;3.80;99.90
28823;DHT22;15961;54.678;9.110;2023-02-15T11:24:42;3.80;99.90
28823;DHT22;15961;54.678;9.110;2023-02-15T11:27:21;3.80;99.90
28823;DHT22;15961;54.678;9.110;2023-02-15T11:32:38;3.70;99.90
28823;DHT22;15961;54.678;9.110;2023-02-15T11:38:18;3.90;99.90
28823;DHT22;15961;54.678;9.110;2023-02-15T11:40:53;4.00;99.90
28823;DHT22;15961;54.678;9.110;2023-02-15T11:43:30;3.90;99.90
28823;DHT22;15961;54.678;9.110;2023-02-15T11:45:57;4.00;99.90
28823;DHT22;15961;54.678;9.110;2023-02-15T11:48:22;4.10;99.90
28823;DHT22;15961;54.678;9.110;2023-02-15T11:50:48;4.10;99.90
28823;DHT22;15961;54.678;9.110;2023-02-15T11:53:19;4.00;99.90
28823;DHT22;15961;54.678;9.110;2023-02-15T11:55:51;4.00;99.90
28823;DHT22;15961;54.678;9.110;2023-02-15T11:58:33;4.00;99.90
28823;DHT22;15961;54.678;9.110;2023-02-15T12:03:46;4.00;99.90
28823;DHT22;15961;54.678;9.110;2023-02-15T12:06:18;4.10;99.90
28823;DHT22;15961;54.678;9.110;2023-02-15T12:08:51;4.10;99.90
28823;DHT22;15961;54.678;9.110;2023-02-15T12:11:25;4.20;99.90
28823;DHT22;15961;54.678;9.110;2023-02-15T12:14:01;4.20;99.90
28823;DHT22;15961;54.678;9.110;2023-02-15T12:16:28;4.10;99.90
28823;DHT22;15961;54.678;9.110;2023-02-15T12:18:58;4.10;99.90
28823;DHT22;15961;54.678;9.110;2023-02-15T12:21:27;4.10;99.90
28823;DHT22;15961;54.678;9.110;2023-02-15T12:24:01;4.20;99.90
28823;DHT22;15961;54.678;9.110;2023-02-15T12:26:31;4.20;99.90
28823;DHT22;15961;54.678;9.110;2023-02-15T12:29:01;4.20;99.90
28823;DHT22;15961;54.678;9.110;2023-02-15T12:31:37;4.20;99.90
28823;DHT22;15961;54.678;9.110;2023-02-15T12:34:21;4.20;99.90
28823;DHT22;15961;54.678;9.110;2023-02-15T12:36:49;4.40;99.90
28823;DHT22;15961;54.678;9.110;2023-02-15T12:39:29;4.50;99.90
28823;DHT22;15961;54.678;9.110;2023-02-15T12:44:22;4.60;99.90
28823;DHT22;15961;54.678;9.110;2023-02-15T12:49:42;4.60;99.90
28823;DHT22;15961;54.678;9.110;2023-02-15T12:54:48;4.50;99.90
28823;DHT22;15961;54.678;9.110;2023-02-15T12:57:20;4.40;99.90
28823;DHT22;15961;54.678;9.110;2023-02-15T13:02:36;4.50;99.90
28823;DHT22;15961;54.678;9.110;2023-02-15T13:07:56;4.60;99.90
28823;DHT22;15961;54.678;9.110;2023-02-15T13:10:36;4.70;99.90
28823;DHT22;15961;54.678;9.110;2023-02-15T13:13:16;4.60;99.90
28823;DHT22;15961;54.678;9.110;2023-02-15T13:15:46;4.50;99.90
28823;DHT22;15961;54.678;9.110;2023-02-15T13:18:23;4.60;99.90
28823;DHT22;15961;54.678;9.110;2023-02-15T13:20:53;4.60;99.90
28823;DHT22;15961;54.678;9.110;2023-02-15T13:23:29;4.70;99.90
28823;DHT22;15961;54.678;9.110;2023-02-15T13:25:59;4.70;99.90
28823;DHT22;15961;54.678;9.110;2023-02-15T13:28:44;4.60;99.90
28823;DHT22;15961;54.678;9.110;2023-02-15T13:31:15;4.60;99.90
28823;DHT22;15961;54.678;9.110;2023-02-15T13:33:46;4.60;99.90
28823;DHT22;15961;54.678;9.110;2023-02-15T13:39:10;4.80;99.90
28823;DHT22;15961;54.678;9.110;2023-02-15T13:41:50;4.70;99.90
28823;DHT22;15961;54.678;9.110;2023-02-15T13:44:21;4.60;99.90
28823;DHT22;15961;54.678;9.110;2023-02-15T13:47:09;4.70;99.90
28823;DHT22;15961;54.678;9.110;2023-02-15T13:52:22;4.70;99.90
28823;DHT22;15961;54.678;9.110;2023-02-15T13:55:03;4.90;99.90
28823;DHT22;15961;54.678;9.110;2023-02-15T13:58:07;4.90;99.90
28823;DHT22;15961;54.678;9.110;2023-02-15T14:09:20;4.80;99.90
28823;DHT22;15961;54.678;9.110;2023-02-15T14:15:01;4.90;99.90
28823;DHT22;15961;54.678;9.110;2023-02-15T14:17:53;5.00;99.90
28823;DHT22;15961;54.678;9.110;2023-02-15T14:23:00;5.00;99.90
28823;DHT22;15961;54.678;9.110;2023-02-15T14:25:45;5.00;99.90
28823;DHT22;15961;54.678;9.110;2023-02-15T14:28:32;4.90;99.90
28823;DHT22;15961;54.678;9.110;2023-02-15T14:30:59;4.90;99.90
28823;DHT22;15961;54.678;9.110;2023-02-15T14:33:40;4.90;99.90
28823;DHT22;15961;54.678;9.110;2023-02-15T14:36:10;4.90;99.90
28823;DHT22;15961;54.678;9.110;2023-02-15T14:42:24;4.80;99.90
28823;DHT22;15961;54.678;9.110;2023-02-15T14:45:19;4.80;99.90
28823;DHT22;15961;54.678;9.110;2023-02-15T14:48:02;4.80;99.90
28823;DHT22;15961;54.678;9.110;2023-02-15T14:58:36;4.70;99.90
28823;DHT22;15961;54.678;9.110;2023-02-15T15:01:07;4.80;99.90
28823;DHT22;15961;54.678;9.110;2023-02-15T15:03:34;4.80;99.90
28823;DHT22;15961;54.678;9.110;2023-02-15T15:06:02;4.90;99.90
28823;DHT22;15961;54.678;9.110;2023-02-15T15:08:36;4.90;99.90
28823;DHT22;15961;54.678;9.110;2023-02-15T15:13:57;4.90;99.90
28823;DHT22;15961;54.678;9.110;2023-02-15T15:16:48;4.90;99.90
28823;DHT22;15961;54.678;9.110;2023-02-15T15:22:37;4.80;99.90
28823;DHT22;15961;54.678;9.110;2023-02-15T15:27:57;4.80;99.90
28823;DHT22;15961;54.678;9.110;2023-02-15T15:41:18;4.70;99.90
28823;DHT22;15961;54.678;9.110;2023-02-15T15:49:21;4.60;99.90
28823;DHT22;15961;54.678;9.110;2023-02-15T15:51:48;4.60;99.90
28823;DHT22;15961;54.678;9.110;2023-02-15T15:54:23;4.60;99.90
28823;DHT22;15961;54.678;9.110;2023-02-15T15:56:58;4.60;99.90
28823;DHT22;15961;54.678;9.110;2023-02-15T15:59:30;4.60;99.90
28823;DHT22;15961;54.678;9.110;2023-02-15T16:02:06;4.60;99.90
28823;DHT22;15961;54.678;9.110;2023-02-15T16:04:34;4.50;99.90
28823;DHT22;15961;54.678;9.110;2023-02-15T16:09:57;4.50;99.90
28823;DHT22;15961;54.678;9.110;2023-02-15T16:12:24;4.40;99.90
28823;DHT22;15961;54.678;9.110;2023-02-15T16:14:50;4.40;99.90
28823;DHT22;15961;54.678;9.110;2023-02-15T16:17:22;4.30;99.90
28823;DHT22;15961;54.678;9.110;2023-02-15T16:19:48;4.30;99.90
28823;DHT22;15961;54.678;9.110;2023-02-15T16:22:18;4.30;99.90
28823;DHT22;15961;54.678;9.110;2023-02-15T16:27:36;4.30;99.90
28823;DHT22;15961;54.678;9.110;2023-02-15T16:30:25;4.30;99.90
28823;DHT22;15961;54.678;9.110;2023-02-15T16:33:15;4.30;99.90
28823;DHT22;15961;54.678;9.110;2023-02-15T16:36:01;4.30;99.90
28823;DHT22;15961;54.678;9.110;2023-02-15T16:41:10;4.30;99.90
28823;DHT22;15961;54.678;9.110;2023-02-15T16:43:37;4.30;99.90
28823;DHT22;15961;54.678;9.110;2023-02-15T16:46:06;4.30;99.90
28823;DHT22;15961;54.678;9.110;2023-02-15T16:48:35;4.30;99.90
28823;DHT22;15961;54.678;9.110;2023-02-15T16:51:03;4.30;99.90
28823;DHT22;15961;54.678;9.110;2023-02-15T16:53:29;4.20;99.90
28823;DHT22;15961;54.678;9.110;2023-02-15T16:55:57;4.20;99.90
28823;DHT22;15961;54.678;9.110;2023-02-15T16:58:37;4.20;99.90
28823;DHT22;15961;54.678;9.110;2023-02-15T17:01:06;4.10;99.90
28823;DHT22;15961;54.678;9.110;2023-02-15T17:03:33;4.10;99.90
28823;DHT22;15961;54.678;9.110;2023-02-15T17:06:00;4.10;99.90
28823;DHT22;15961;54.678;9.110;2023-02-15T17:08:42;4.10;99.90
28823;DHT22;15961;54.678;9.110;2023-02-15T17:11:19;4.10;99.90
28823;DHT22;15961;54.678;9.110;2023-02-15T17:16:32;4.10;99.90
28823;DHT22;15961;54.678;9.110;2023-02-15T17:19:01;4.10;99.90
28823;DHT22;15961;54.678;9.110;2023-02-15T17:21:33;4.10;99.90
28823;DHT22;15961;54.678;9.110;2023-02-15T17:24:01;4.10;99.90
28823;DHT22;15961;54.678;9.110;2023-02-15T17:26:30;4.10;99.90
28823;DHT22;15961;54.678;9.110;2023-02-15T17:29:33;4.10;99.90
28823;DHT22;15961;54.678;9.110;2023-02-15T17:31:59;4.10;99.90
28823;DHT22;15961;54.678;9.110;2023-02-15T17:34:56;4.00;99.90
28823;DHT22;15961;54.678;9.110;2023-02-15T17:37:30;4.00;99.90
28823;DHT22;15961;54.678;9.110;2023-02-15T17:39:58;4.00;99.90
28823;DHT22;15961;54.678;9.110;2023-02-15T17:42:24;4.00;99.90
28823;DHT22;15961;54.678;9.110;2023-02-15T17:44:49;4.00;99.90
28823;DHT22;15961;54.678;9.110;2023-02-15T17:47:17;4.00;99.90
28823;DHT22;15961;54.678;9.110;2023-02-15T17:49:43;4.00;99.90
28823;DHT22;15961;54.678;9.110;2023-02-15T17:52:13;4.00;99.90
28823;DHT22;15961;54.678;9.110;2023-02-15T17:54:42;4.00;99.90
28823;DHT22;15961;54.678;9.110;2023-02-15T17:57:27;4.00;99.90
28823;DHT22;15961;54.678;9.110;2023-02-15T17:59:53;4.00;99.90
28823;DHT22;15961;54.678;9.110;2023-02-15T18:02:37;4.00;99.90
28823;DHT22;15961;54.678;9.110;2023-02-15T18:05:21;4.10;99.90
28823;DHT22;15961;54.678;9.110;2023-02-15T18:08:14;4.00;99.90
28823;DHT22;15961;54.678;9.110;2023-02-15T18:10:59;4.00;99.90
28823;DHT22;15961;54.678;9.110;2023-02-15T18:13:44;4.00;99.90
28823;DHT22;15961;54.678;9.110;2023-02-15T18:16:13;4.00;99.90
28823;DHT22;15961;54.678;9.110;2023-02-15T18:18:40;4.00;99.90
28823;DHT22;15961;54.678;9.110;2023-02-15T18:21:05;4.00;99.90
28823;DHT22;15961;54.678;9.110;2023-02-15T18:23:32;4.00;99.90
28823;DHT22;15961;54.678;9.110;2023-02-15T18:25:58;4.00;99.90
28823;DHT22;15961;54.678;9.110;2023-02-15T18:28:23;4.00;99.90
28823;DHT22;15961;54.678;9.110;2023-02-15T18:30:49;3.90;99.90
28823;DHT22;15961;54.678;9.110;2023-02-15T18:33:28;3.90;99.90
28823;DHT22;15961;54.678;9.110;2023-02-15T18:35:56;3.90;99.90
28823;DHT22;15961;54.678;9.110;2023-02-15T18:38:22;4.00;99.90
28823;DHT22;15961;54.678;9.110;2023-02-15T18:40:47;3.90;99.90
28823;DHT22;15961;54.678;9.110;2023-02-15T18:43:15;4.00;99.90
28823;DHT22;15961;54.678;9.110;2023-02-15T18:45:40;3.90;99.90